18 augustus 2022

Tijd Code Weer Temp. Zicht Plafond Wind METAR/SPECI
17:30
V
19 °C 10 km+ 6.400 ft 050° 050° 4 kt METAR LESU 181530Z 05004KT 360V090 9999 BKN064 19/13 Q1017
17:00
V
19 °C 10 km+ 6.500 ft 170° 170° 5 kt METAR LESU 181500Z 17005KT 080V210 9999 BKN065CB 19/13 Q1016
16:30
V
17 °C 10 km+ 6.300 ft 170° 170° 5 kt METAR LESU 181430Z 17005KT 110V260 9999 BKN063CB 17/13 Q1016
16:10
V
18 °C 10 km+ 5.200 ft 230° 230° 5 kt METAR LESU 181410Z 23005KT 150V280 9999 -SHRA FEW019 BKN052CB 18/12 Q1016
16:00
I
17 °C 3,1 km 4.500 ft 150° 150° 5 kt METAR LESU 181400Z 15005KT 120V220 3100 +SHRA FEW019 BKN045 BKN068CB 17/13 Q1016
15:44
V
19 °C 10 km+ 6.400 ft 230° 230° 4 kt METAR LESU 181344Z 23004KT 180V270 9999 SHRA BKN064 BKN072CB 19/12 Q1016
15:35
V
19 °C 10 km+ 7.000 ft 250° 250° 6 kt METAR LESU 181335Z 25006KT 220V290 9999 -SHRA BKN070CB 19/13 Q1015
15:00
V
17 °C 10 km+ 6.800 ft 160° 160° 8 kt METAR LESU 181300Z 16008KT 130V190 9999 -TSRA FEW026 SCT034 BKN068CB 17/11 Q1014
14:30
V
21 °C 10 km+ 6.800 ft 130° 130° 5 kt METAR LESU 181230Z 13005KT 070V190 9999 -TSRA FEW007 BKN068CB 21/10 Q1014
14:06
V
23 °C 10 km+ 9.100 ft 030° 030° 5 kt METAR LESU 181206Z 03005KT 320V090 9999 -TSRAGS SCT070 BKN091CB 23/08 Q1014
14:00
V
24 °C 10 km+ 9.400 ft 080° 080° 7 kt METAR LESU 181200Z 08007KT 020V150 9999 BKN094CB 24/07 Q1014
13:30
V
24 °C 10 km+ - 110° 110° 7 kt METAR LESU 181130Z 11007KT 070V150 9999 ////// 24/08 Q1014
13:00
V
22 °C 10 km+ - 120° 120° 5 kt METAR LESU 181100Z 12005KT 080V160 9999 SCT070TCU 22/09 Q1014
12:30
V
22 °C 10 km+ - 100° 100° 4 kt METAR LESU 181030Z 10004KT 060V200 9999 SCT080TCU 22/12 Q1015
12:00
V
20 °C 10 km+ - Var Var 2 kt METAR LESU 181000Z VRB02KT 9999 SCT080TCU 20/11 Q1015
11:43
V
19 °C 10 km+ - Var Var 2 kt METAR LESU 180943Z VRB02KT 9999 SCT080TCU 19/13 Q1015
11:30
V
19 °C 10 km+ - Var Var 3 kt METAR LESU 180930Z VRB03KT 9999 FEW080TCU 19/12 Q1015
11:00
V
17 °C 10 km+ - Var Var 2 kt METAR LESU 180900Z VRB02KT 9999 FEW090 17/11 Q1015
10:30
V
15 °C 10 km+ - Var Var 1 kt METAR LESU 180830Z VRB01KT 9999 FEW090 15/12 Q1015
10:00
V
15 °C 10 km+ - 030° 030° 3 kt METAR LESU 180800Z 03003KT 340V070 9999 FEW090 15/11 Q1015

17 augustus 2022

Tijd Code Weer Temp. Zicht Plafond Wind METAR/SPECI
16:30
V
18 °C 10 km+ 8.700 ft 350° 350° 6 kt METAR LESU 171430Z 35006KT 9999 -TSRA FEW049 BKN087CB 18/14 Q1013
16:00
V
19 °C 10 km+ 9.200 ft 040° 040° 7 kt METAR LESU 171400Z 04007KT 340V070 9999 -TSRA FEW031 BKN092CB 19/13 Q1012
15:30
V
19 °C 10 km+ 9.200 ft 040° 040° 9 kt METAR LESU 171330Z 04009KT 360V060 9999 BKN092CB 19/14 Q1012
15:00
V
18 °C 10 km+ 8.200 ft 210° 210° 6 kt METAR LESU 171300Z 21006KT 180V290 9999 -TSRA FEW030 SCT036 BKN082CB 18/15 Q1011 RETSRA
14:38
V
18 °C 10 km+ 9.000 ft 210° 210° 11 - 22 kt METAR LESU 171238Z 21011G22KT 180V260 9999 TSRA FEW050 BKN090CB 18/14 Q1011
14:30
V
20 °C 10 km+ 9.400 ft 230° 230° 10 kt METAR LESU 171230Z 23010KT 190V260 9999 -TSRA FEW040 BKN094CB 20/16 Q1011 RETSRA
14:07
V
25 °C 10 km+ 8.000 ft 220° 220° 8 kt METAR LESU 171207Z 22008KT 190V250 9999 -TSRA FEW040 BKN080CB 25/15 Q1011
14:00
V
27 °C 10 km+ 8.000 ft 200° 200° 10 kt METAR LESU 171200Z 20010KT 150V230 9999 VCTS BKN080CB 27/13 Q1010
13:30
V
27 °C 10 km+ - 220° 220° 6 kt METAR LESU 171130Z 22006KT 150V260 9999 SCT090CB 27/13 Q1010
13:00
V
25 °C 10 km+ - Var Var 3 kt METAR LESU 171100Z VRB03KT 9999 SCT090TCU 25/13 Q1011 NOSIG
12:30
V
22 °C 10 km+ - Var Var 2 kt METAR LESU 171030Z VRB02KT 9999 SCT090TCU 22/12 Q1011 NOSIG
12:00
V
22 °C 10 km+ - Var Var 2 kt METAR LESU 171000Z VRB02KT 9999 SCT090TCU 22/12 Q1011 NOSIG
Oudere gegevens

Met cookies volgen wij en derde partijen jouw internetgedrag binnen onze site. Als je verdergaat gaan we ervan uit dat je dit goedvindt. Meer info